SBPL/PNZ METAR and TAF weather

Enter ICAO airport designator
Station Type Date Time Source
SBPL METAR 2022/06/30 02:00 UTC NOAA

SBPL 300200Z 09004KT CAVOK 21/15 Q1017


Station Type Date Time Source
SBPL Decoded METAR 2022/06/30 02:00 UTC NOAA

Petrolina , Brazil (SBPL) 09-21S 040-33W
Jun 29, 2022 - 10:00 PM EDT / 2022.06.30 0200 UTC
Wind: from the E (090 degrees) at 5 MPH (4 KT):0
Visibility: greater than 7 mile(s):0
Temperature: 69 F (21 C)
Dew Point: 59 F (15 C)
Relative Humidity: 68%
Pressure (altimeter): 30.03 in. Hg (1017 hPa)
ob: SBPL 300200Z 09004KT CAVOK 21/15 Q1017
cycle: 2

Station Type Date Time Source
SBPL TAF 2022/06/30 06:04 UTC NOAA

TAF SBPL 300100Z 3006/0106 16010KT 9999 SCT030 TN19/3009Z TX30/3017Z
BECMG 3009/3011 14010KT
BECMG 3019/3021 18005KT
RMK PGU

Example: see airport list